Detall de PIREP

Printer-friendly versionPDF version

[2012/04/24 11:00:00]
Flight IATA:CT0001
Pilot Number:011
Company ICAO:CAT
Aircraft Type:F50/A
PAX:50
Aircraft Registration:DREAMWINGS
Departing Airport: LEAL
Destination Airport: LEBL
Alternate Airport:LEPA
Online: VATSIM
Route:VLC A34 SAURA R60 SENIA
Flight Level:F180
No Slew and time accel
No pause
Crash detect
Detect pilot in Cockpit between each 30 and 45 minutes
11:00 Zero fuel Weight: 42042 Lbs, Fuel Weight: 2718 Lbs
11:00 VATSIM:LEAL 241030Z 31022G36KT 9999 FEW050 19/04 Q1013 NOSIG
11:00 VATSIM:LEBL 241030Z 33010KT 280V020 9999 FEW025 18/M01 Q1009 NOSIG
11:06 Parking Brakes off
11:18 Take-off
11:18 Take off Weight: 44658 Lbs
11:18 Wind: 303º @ 018 Knots Heading: 280º
11:18 POS N38º 16´ 52´´ W000º 33´ 02´´
11:18 Gear Up: 127 Knots
11:18 Flaps:3 at 127 Knots
11:19 Flaps:2 at 162 Knots
11:19 Flaps:1 at 175 Knots
11:19 Flaps:0 at 177 Knots
11:30 TOC
11:30Fuel Weight: 2236 Lb
11:33 Wind:301º@030 Knots Heading: 012º Ground Speed: 258 Knots Altitude 17995 ft
11:48 Wind:301º@031 Knots Heading: 008º Ground Speed: 268 Knots Altitude 17975 ft
12:02 TOD
12:02 Fuel Weight: 1309 Lb
12:03 Wind:272º@062 Knots Heading: 041º Ground Speed: 339 Knots Altitude 16295 ft
12:18 Wind:252º@017 Knots Heading: 061º Ground Speed: 238 Knots Altitude 5925 ft
12:24 Flaps:1 at 147 Knots
12:24 Flaps:2 at 146 Knots
12:24 Flaps:3 at 140 Knots
12:24 Flaps:4 at 133 Knots
12:25 Flaps:5 at 129 Knots
12:25 Gear Down: 125 Knots
12:26 Flaps:6 at 105 Knots
12:30 TouchDown:Rate -63 ft/min Speed: 94 Knots
12:30 VATSIM:LEBL 241200Z 26012KT 220V300 9999 FEW030 21/M01 Q1009 NOSIG
12:30 Land
12:30 Wind:262º@012 Knots
12:30 Heading: 245º
12:30 Flight Duration: 01:12
12:30 Landing Weight: 42988 Lbs
12:30 POS N41º 17´ 59´´ E002º 05´ 11´´
12:34 Parking brakes on
12:34 Block to Block Duration: 01:28
12:34 Final Fuel: 912 Lbls
12:34 Spent Fuel: 1805 Lbls
12:34 Flight Length: 217 NM
12:34 TOD Land Length: 101 NM

Exportar CSV

Powered by Drupal - Modified by Danger4k